createdAt,value
2022-10-09T00:01:32.281Z,4.30
2022-10-09T00:04:00.805Z,5.70
2022-10-09T00:06:33.715Z,5.10
2022-10-09T00:09:04.223Z,2.70
2022-10-09T00:11:34.452Z,3.60
2022-10-09T00:14:03.577Z,3.10
2022-10-09T00:16:31.485Z,3.10
2022-10-09T00:18:59.349Z,2.60
2022-10-09T00:21:32.876Z,2.60
2022-10-09T00:24:03.976Z,4.00
2022-10-09T00:26:35.860Z,3.60
2022-10-09T00:29:04.273Z,2.30
2022-10-09T00:31:32.036Z,3.60
2022-10-09T00:33:59.936Z,4.00
2022-10-09T00:36:27.798Z,4.90
2022-10-09T00:38:56.594Z,5.10
2022-10-09T00:41:29.513Z,3.60
2022-10-09T00:44:02.216Z,3.60
2022-10-09T00:46:45.080Z,4.60
2022-10-09T00:49:34.450Z,4.60
2022-10-09T00:52:07.204Z,4.40
2022-10-09T00:54:39.153Z,3.20
2022-10-09T00:57:08.493Z,4.70
2022-10-09T00:59:37.104Z,1.70
2022-10-09T01:02:05.249Z,3.50
2022-10-09T01:04:33.250Z,4.90
2022-10-09T01:07:49.843Z,1.80
2022-10-09T01:10:43.263Z,4.50
2022-10-09T01:13:25.230Z,4.80
2022-10-09T01:16:08.203Z,4.30
2022-10-09T01:19:06.745Z,3.70
2022-10-09T01:21:46.681Z,4.80
2022-10-09T01:24:29.602Z,2.50
2022-10-09T01:27:11.779Z,6.60
2022-10-09T01:29:48.535Z,3.50
2022-10-09T01:32:23.651Z,3.60
2022-10-09T01:34:53.518Z,4.70
2022-10-09T01:37:23.851Z,4.30
2022-10-09T01:39:54.254Z,4.50
2022-10-09T01:42:26.291Z,3.00
2022-10-09T01:44:54.031Z,5.10
2022-10-09T01:47:22.901Z,5.50
2022-10-09T01:50:26.709Z,4.50
2022-10-09T01:53:06.499Z,4.70
2022-10-09T01:55:45.034Z,4.80
2022-10-09T01:58:48.967Z,3.80
2022-10-09T02:01:35.323Z,4.00
2022-10-09T02:04:10.460Z,3.10
2022-10-09T02:06:41.096Z,4.50
2022-10-09T02:09:15.652Z,2.60
2022-10-09T02:11:51.724Z,3.80
2022-10-09T02:14:19.543Z,2.40
2022-10-09T02:16:58.434Z,5.10
2022-10-09T02:19:43.986Z,4.40
2022-10-09T02:22:24.324Z,4.70
2022-10-09T02:24:52.875Z,5.10
2022-10-09T02:27:22.088Z,6.00
2022-10-09T02:29:50.069Z,5.40
2022-10-09T02:32:18.704Z,5.30
2022-10-09T02:34:46.508Z,4.40
2022-10-09T02:37:15.014Z,4.90
2022-10-09T02:39:43.924Z,5.20
2022-10-09T02:42:12.124Z,3.60
2022-10-09T02:44:39.851Z,4.30
2022-10-09T02:47:07.595Z,4.00
2022-10-09T02:49:35.356Z,3.90
2022-10-09T02:52:03.165Z,4.40
2022-10-09T02:54:31.117Z,4.80
2022-10-09T02:56:58.916Z,4.80
2022-10-09T02:59:27.189Z,4.60
2022-10-09T03:01:55.480Z,3.30
2022-10-09T03:04:23.297Z,4.10
2022-10-09T03:06:51.211Z,5.60
2022-10-09T03:09:18.884Z,4.40
2022-10-09T03:11:46.557Z,3.80
2022-10-09T03:14:14.280Z,3.10
2022-10-09T03:16:41.985Z,5.20
2022-10-09T03:19:09.773Z,3.60
2022-10-09T03:21:37.454Z,3.90
2022-10-09T03:24:05.157Z,2.80
2022-10-09T03:26:32.879Z,3.90
2022-10-09T03:29:00.741Z,3.70
2022-10-09T03:34:16.299Z,4.30
2022-10-09T03:36:43.973Z,3.70
2022-10-09T03:39:11.891Z,4.40
2022-10-09T03:41:39.572Z,2.50
2022-10-09T03:44:07.280Z,3.60
2022-10-09T03:46:35.103Z,2.20
2022-10-09T03:49:03.014Z,3.80
2022-10-09T03:51:30.776Z,5.10
2022-10-09T03:53:58.563Z,3.70
2022-10-09T03:56:26.269Z,4.90
2022-10-09T03:58:54.065Z,4.90
2022-10-09T04:01:22.419Z,4.20
2022-10-09T04:03:50.354Z,3.90
2022-10-09T04:06:18.042Z,6.50
2022-10-09T04:08:45.726Z,5.00
2022-10-09T04:11:13.413Z,3.60
2022-10-09T04:13:41.133Z,6.80
2022-10-09T04:16:12.813Z,4.20
2022-10-09T04:18:43.618Z,5.50
2022-10-09T04:21:13.267Z,4.30
2022-10-09T04:23:41.094Z,4.60
2022-10-09T04:26:12.669Z,4.60
2022-10-09T04:28:40.541Z,3.80
2022-10-09T04:31:08.598Z,5.60
2022-10-09T04:33:36.381Z,4.00
2022-10-09T04:36:04.634Z,4.60
2022-10-09T04:38:32.455Z,4.80
2022-10-09T04:41:07.022Z,3.50
2022-10-09T04:43:35.514Z,6.30
2022-10-09T04:46:08.502Z,8.00
2022-10-09T04:48:41.945Z,5.50
2022-10-09T04:51:11.191Z,2.90
2022-10-09T04:53:40.109Z,6.70
2022-10-09T04:56:15.658Z,3.10
2022-10-09T04:58:44.821Z,5.20
2022-10-09T05:01:20.845Z,4.30
2022-10-09T05:03:49.287Z,7.80
2022-10-09T05:06:19.334Z,5.90
2022-10-09T05:08:48.182Z,4.70
2022-10-09T05:11:20.514Z,4.00
2022-10-09T05:13:52.807Z,5.00
2022-10-09T05:16:25.616Z,3.50
2022-10-09T05:18:58.193Z,4.80
2022-10-09T05:21:29.480Z,5.20
2022-10-09T05:23:57.310Z,4.70
2022-10-09T05:26:26.969Z,4.30
2022-10-09T05:29:01.245Z,5.10
2022-10-09T05:31:38.160Z,5.60
2022-10-09T05:34:05.996Z,6.00
2022-10-09T05:36:42.381Z,4.80
2022-10-09T05:39:10.358Z,6.40
2022-10-09T05:41:38.161Z,4.80
2022-10-09T05:50:15.838Z,5.10
2022-10-09T06:00:22.874Z,6.00
2022-10-09T06:02:51.164Z,4.10
2022-10-09T06:05:19.433Z,4.10
2022-10-09T06:07:47.950Z,7.10
2022-10-09T06:10:16.030Z,5.50
2022-10-09T06:12:43.902Z,5.00
2022-10-09T06:15:11.925Z,6.20
2022-10-09T06:17:39.806Z,7.00
2022-10-09T06:20:08.010Z,7.00
2022-10-09T06:22:35.978Z,6.40
2022-10-09T06:25:04.115Z,7.80
2022-10-09T06:27:32.003Z,3.80
2022-10-09T06:29:59.777Z,6.90
2022-10-09T06:32:27.778Z,4.50
2022-10-09T06:34:57.765Z,5.80
2022-10-09T06:37:25.576Z,7.20
2022-10-09T06:39:53.371Z,7.00
2022-10-09T06:42:22.038Z,5.70
2022-10-09T06:44:50.196Z,6.20
2022-10-09T06:47:18.350Z,5.60
2022-10-09T06:49:46.036Z,6.40
2022-10-09T06:52:20.846Z,4.70
2022-10-09T06:54:49.235Z,4.50
2022-10-09T06:57:16.858Z,5.40
2022-10-09T06:59:44.540Z,4.40
2022-10-09T07:02:12.302Z,7.60
2022-10-09T07:04:40.194Z,4.10
2022-10-09T07:07:07.894Z,6.00
2022-10-09T07:09:35.881Z,5.70
2022-10-09T07:12:03.689Z,4.00
2022-10-09T07:14:31.395Z,2.90
2022-10-09T07:16:59.186Z,5.10
2022-10-09T07:19:26.822Z,4.90
2022-10-09T07:21:54.547Z,4.70
2022-10-09T07:24:24.792Z,6.30
2022-10-09T07:26:57.448Z,4.40
2022-10-09T07:29:25.166Z,4.20
2022-10-09T07:31:53.206Z,5.50
2022-10-09T07:34:20.892Z,3.10
2022-10-09T07:36:48.655Z,4.40
2022-10-09T07:39:19.378Z,6.30
2022-10-09T07:41:51.680Z,8.80
2022-10-09T07:44:19.678Z,4.70
2022-10-09T07:46:51.246Z,3.30
2022-10-09T07:49:19.498Z,5.20
2022-10-09T07:51:47.171Z,2.60
2022-10-09T07:54:15.055Z,6.10
2022-10-09T07:56:42.737Z,6.60
2022-10-09T07:59:16.234Z,3.50
2022-10-09T08:01:44.192Z,6.90
2022-10-09T08:04:11.990Z,3.00
2022-10-09T08:06:39.863Z,4.80
2022-10-09T08:09:09.419Z,3.50
2022-10-09T08:11:40.726Z,5.00
2022-10-09T08:14:16.595Z,2.10
2022-10-09T08:16:48.447Z,5.80
2022-10-09T08:19:16.247Z,3.10
2022-10-09T08:21:44.056Z,4.60
2022-10-09T08:24:12.924Z,4.20
2022-10-09T08:26:40.772Z,2.80
2022-10-09T08:29:08.698Z,3.60
2022-10-09T08:31:36.646Z,6.20
2022-10-09T08:34:04.599Z,5.50
2022-10-09T08:36:32.874Z,3.10
2022-10-09T08:39:00.800Z,5.20
2022-10-09T08:41:48.149Z,5.10
2022-10-09T08:44:24.438Z,3.60
2022-10-09T08:47:19.758Z,3.90
2022-10-09T08:49:50.775Z,6.30
2022-10-09T08:52:56.509Z,5.00
2022-10-09T08:55:32.977Z,4.10
2022-10-09T08:58:06.129Z,3.00
2022-10-09T09:00:54.551Z,5.00
2022-10-09T09:03:47.770Z,6.10
2022-10-09T09:06:57.969Z,3.40
2022-10-09T09:09:54.300Z,9.90
2022-10-09T09:12:52.837Z,3.70
2022-10-09T09:15:38.761Z,4.10
2022-10-09T09:18:35.688Z,2.50
2022-10-09T09:21:53.871Z,4.80
2022-10-09T09:24:39.555Z,5.00
2022-10-09T09:27:21.632Z,4.70
2022-10-09T09:30:15.169Z,3.20
2022-10-09T09:33:15.771Z,7.70
2022-10-09T09:36:16.844Z,4.50
2022-10-09T09:39:24.974Z,3.40
2022-10-09T09:41:32.342Z,3.50
2022-10-09T09:44:00.031Z,4.60
2022-10-09T09:46:32.413Z,4.20
2022-10-09T09:49:00.143Z,4.60
2022-10-09T09:51:32.634Z,7.60
2022-10-09T09:54:29.307Z,4.80
2022-10-09T09:57:13.981Z,4.10
2022-10-09T09:59:44.289Z,3.70
2022-10-09T10:02:27.248Z,5.10
2022-10-09T10:05:15.153Z,4.40
2022-10-09T10:07:43.039Z,4.80
2022-10-09T10:10:25.522Z,2.60
2022-10-09T10:12:59.235Z,8.50
2022-10-09T10:15:33.627Z,4.40
2022-10-09T10:18:06.739Z,6.00
2022-10-09T10:20:52.696Z,3.30
2022-10-09T10:23:37.906Z,5.80
2022-10-09T10:26:23.154Z,5.30
2022-10-09T10:29:09.038Z,4.30
2022-10-09T10:32:23.720Z,3.30
2022-10-09T10:35:07.011Z,4.20
2022-10-09T10:38:06.402Z,3.90
2022-10-09T10:40:50.239Z,3.90
2022-10-09T10:43:49.038Z,4.50
2022-10-09T10:46:28.550Z,4.10
2022-10-09T10:48:59.790Z,2.70
2022-10-09T10:51:59.894Z,5.40
2022-10-09T10:54:42.630Z,2.60
2022-10-09T10:57:36.367Z,3.30
2022-10-09T11:00:14.615Z,4.00
2022-10-09T11:03:20.954Z,3.40
2022-10-09T11:05:57.720Z,2.20
2022-10-09T11:08:47.769Z,2.00
2022-10-09T11:11:39.880Z,2.10
2022-10-09T11:14:47.045Z,2.70
2022-10-09T11:17:53.033Z,4.90
2022-10-09T11:20:42.619Z,2.60
2022-10-09T11:23:43.071Z,2.90
2022-10-09T11:26:48.923Z,2.30
2022-10-09T11:29:23.445Z,2.40
2022-10-09T11:32:13.873Z,3.80
2022-10-09T11:34:55.197Z,4.30
2022-10-09T11:37:30.605Z,2.40
2022-10-09T11:39:58.766Z,5.30
2022-10-09T11:42:27.823Z,4.20
2022-10-09T11:45:21.797Z,3.40
2022-10-09T11:48:18.376Z,3.70
2022-10-09T11:51:00.372Z,3.30
2022-10-09T11:53:31.825Z,6.10
2022-10-09T11:56:19.271Z,3.70
2022-10-09T11:59:04.597Z,2.20
2022-10-09T12:01:40.739Z,6.00
2022-10-09T12:04:20.904Z,4.60
2022-10-09T12:07:07.222Z,3.90
2022-10-09T12:09:49.195Z,4.80
2022-10-09T12:12:16.880Z,5.50
2022-10-09T12:14:48.402Z,2.70
2022-10-09T12:17:22.382Z,4.70
2022-10-09T12:20:00.070Z,3.80
2022-10-09T12:22:42.377Z,7.10
2022-10-09T12:25:32.798Z,4.20
2022-10-09T12:28:00.808Z,3.30
2022-10-09T12:30:47.816Z,3.40
2022-10-09T12:33:27.899Z,3.00
2022-10-09T12:36:22.032Z,5.60
2022-10-09T12:38:50.204Z,3.10
2022-10-09T12:41:26.121Z,4.20
2022-10-09T12:43:57.452Z,3.40
2022-10-09T12:46:31.987Z,2.80
2022-10-09T12:49:04.596Z,3.20
2022-10-09T12:51:33.862Z,3.10
2022-10-09T12:54:09.170Z,4.60
2022-10-09T12:56:39.308Z,4.40
2022-10-09T12:59:09.741Z,5.30
2022-10-09T13:01:40.337Z,3.70
2022-10-09T13:04:23.635Z,3.50
2022-10-09T13:06:53.153Z,4.00
2022-10-09T13:09:28.312Z,5.10
2022-10-09T13:12:06.604Z,4.30
2022-10-09T13:14:43.395Z,5.80
2022-10-09T13:17:39.406Z,4.30
2022-10-09T13:20:16.085Z,1.80
2022-10-09T13:23:01.836Z,4.40
2022-10-09T13:25:37.354Z,3.60
2022-10-09T13:28:05.643Z,4.00
2022-10-09T13:30:33.685Z,2.50
2022-10-09T13:33:01.516Z,3.30
2022-10-09T13:35:29.260Z,3.30
2022-10-09T13:37:56.902Z,7.40
2022-10-09T13:40:25.012Z,5.10
2022-10-09T13:42:57.967Z,3.50
2022-10-09T13:45:25.766Z,5.40
2022-10-09T13:47:53.643Z,3.70
2022-10-09T13:50:21.805Z,5.30
2022-10-09T13:52:49.585Z,3.90
2022-10-09T13:55:17.559Z,4.60
2022-10-09T13:57:46.512Z,3.70
2022-10-09T14:00:15.011Z,4.00
2022-10-09T14:02:42.853Z,2.60
2022-10-09T14:05:10.809Z,4.30
2022-10-09T14:07:38.928Z,3.90
2022-10-09T14:10:07.411Z,6.20
2022-10-09T14:12:35.382Z,3.10
2022-10-09T14:15:03.192Z,4.10
2022-10-09T14:17:30.945Z,5.20
2022-10-09T14:20:29.443Z,4.60
2022-10-09T14:43:30.593Z,3.20
2022-10-09T14:46:18.212Z,2.20
2022-10-09T14:48:48.947Z,5.90
2022-10-09T14:51:24.124Z,3.00
2022-10-09T14:56:09.551Z,3.70
2022-10-09T15:39:07.482Z,5.10
2022-10-09T15:41:40.169Z,4.20
2022-10-09T15:44:19.833Z,4.20
2022-10-09T15:46:49.467Z,5.10
2022-10-09T15:49:18.256Z,5.20
2022-10-09T15:51:46.023Z,4.70
2022-10-09T15:54:15.583Z,4.00
2022-10-09T15:56:43.397Z,4.20
2022-10-09T15:59:13.687Z,6.90
2022-10-09T16:01:41.577Z,6.30
2022-10-09T16:04:10.398Z,4.90
2022-10-09T16:06:38.418Z,6.20
2022-10-09T16:09:06.527Z,7.50
2022-10-09T16:11:34.870Z,5.10
2022-10-09T16:14:02.681Z,6.60
2022-10-09T16:16:30.648Z,6.20
2022-10-09T16:18:58.445Z,4.90
2022-10-09T16:21:29.036Z,5.10
2022-10-09T16:23:59.737Z,8.40
2022-10-09T16:26:30.114Z,7.10
2022-10-09T16:29:00.605Z,5.00
2022-10-09T16:31:34.996Z,6.80
2022-10-09T16:34:06.310Z,6.30
2022-10-09T16:36:34.258Z,6.00
2022-10-09T16:39:02.918Z,6.60
2022-10-09T16:41:31.059Z,6.00
2022-10-09T16:44:00.502Z,5.10
2022-10-09T16:49:07.515Z,9.60
2022-10-09T16:51:36.565Z,10.50
2022-10-09T16:54:06.791Z,9.90
2022-10-09T16:56:39.416Z,9.90
2022-10-09T16:59:13.715Z,11.40
2022-10-09T17:01:45.392Z,10.40
2022-10-09T17:04:15.078Z,9.60
2022-10-09T17:06:44.491Z,12.50
2022-10-09T17:09:14.535Z,11.60
2022-10-09T17:11:43.134Z,9.20
2022-10-09T17:14:12.426Z,9.70
2022-10-09T17:16:42.873Z,11.50
2022-10-09T17:19:11.007Z,11.60
2022-10-09T17:21:39.044Z,10.00
2022-10-09T17:24:07.864Z,13.70
2022-10-09T17:26:36.300Z,10.80
2022-10-09T17:29:04.795Z,12.60
2022-10-09T17:31:34.103Z,11.20
2022-10-09T17:34:05.797Z,14.70
2022-10-09T17:36:40.285Z,14.50
2022-10-09T17:39:16.820Z,14.90
2022-10-09T17:41:48.652Z,11.40
2022-10-09T17:44:16.939Z,12.70
2022-10-09T17:46:44.803Z,15.80
2022-10-09T17:49:12.625Z,17.60
2022-10-09T17:51:41.206Z,13.70
2022-10-09T17:54:15.665Z,12.20
2022-10-09T17:56:44.812Z,13.70
2022-10-09T17:59:13.153Z,14.70
2022-10-09T18:01:41.204Z,14.10
2022-10-09T18:04:15.951Z,18.20
2022-10-09T18:06:44.968Z,15.80
2022-10-09T18:09:12.886Z,15.30
2022-10-09T18:11:40.792Z,13.10
2022-10-09T18:14:09.962Z,17.30
2022-10-09T18:16:39.889Z,16.90
2022-10-09T18:19:13.440Z,15.10
2022-10-09T18:21:45.682Z,12.70
2022-10-09T18:24:15.309Z,17.20
2022-10-09T18:26:44.625Z,13.90
2022-10-09T18:29:12.688Z,24.30
2022-10-09T18:31:40.666Z,16.90
2022-10-09T18:34:10.405Z,19.50
2022-10-09T18:36:39.503Z,13.50
2022-10-09T18:39:13.467Z,19.00
2022-10-09T18:41:42.290Z,16.60
2022-10-09T18:44:17.661Z,16.30
2022-10-09T18:46:55.980Z,21.10
2022-10-09T18:49:29.591Z,14.40
2022-10-09T18:52:03.055Z,17.40
2022-10-09T18:54:31.460Z,17.20
2022-10-09T18:56:59.455Z,21.90
2022-10-09T18:59:29.502Z,17.50
2022-10-09T19:01:57.243Z,20.20
2022-10-09T19:04:25.696Z,18.70
2022-10-09T19:06:55.008Z,16.20
2022-10-09T19:09:23.777Z,18.70
2022-10-09T19:11:52.713Z,18.50
2022-10-09T19:14:20.725Z,22.30
2022-10-09T19:16:48.800Z,20.80
2022-10-09T19:19:19.559Z,18.30
2022-10-09T19:21:47.232Z,20.10
2022-10-09T19:24:14.976Z,17.50
2022-10-09T19:26:42.892Z,20.40
2022-10-09T19:29:10.980Z,18.00
2022-10-09T19:31:38.905Z,17.10
2022-10-09T19:34:08.030Z,18.80
2022-10-09T19:36:36.927Z,18.80
2022-10-09T19:39:07.922Z,19.00
2022-10-09T19:41:36.068Z,18.50
2022-10-09T19:44:03.809Z,18.30
2022-10-09T19:46:31.805Z,16.30
2022-10-09T19:49:02.420Z,14.90
2022-10-09T19:51:30.538Z,18.20
2022-10-09T19:53:59.171Z,18.30
2022-10-09T19:56:33.413Z,18.10
2022-10-09T19:59:05.301Z,17.90
2022-10-09T20:01:37.763Z,15.70
2022-10-09T20:04:12.397Z,14.90
2022-10-09T20:06:43.148Z,13.80
2022-10-09T20:09:13.602Z,16.50
2022-10-09T20:11:41.600Z,18.10
2022-10-09T20:14:11.326Z,16.60
2022-10-09T20:16:39.337Z,13.60
2022-10-09T20:19:07.127Z,17.10
2022-10-09T20:21:35.939Z,15.90
2022-10-09T20:24:06.139Z,17.20
2022-10-09T20:26:34.249Z,14.80
2022-10-09T20:29:01.971Z,14.40
2022-10-09T20:31:30.559Z,16.30
2022-10-09T20:33:58.862Z,14.30
2022-10-09T20:36:35.651Z,16.00
2022-10-09T20:39:13.961Z,15.10
2022-10-09T20:41:43.584Z,13.90
2022-10-09T20:44:12.184Z,15.50
2022-10-09T20:46:41.574Z,15.10
2022-10-09T20:49:14.803Z,14.30
2022-10-09T20:51:42.935Z,16.20
2022-10-09T20:54:17.622Z,13.50
2022-10-09T20:56:46.306Z,12.40
2022-10-09T20:59:15.114Z,14.30
2022-10-09T21:01:43.237Z,13.30
2022-10-09T21:04:12.364Z,13.00
2022-10-09T21:06:40.711Z,12.10
2022-10-09T21:09:09.282Z,15.10
2022-10-09T21:11:37.042Z,13.20
2022-10-09T21:14:04.747Z,14.10
2022-10-09T21:16:32.473Z,15.20
2022-10-09T21:19:04.195Z,14.00
2022-10-09T21:21:33.229Z,16.20
2022-10-09T21:24:02.332Z,14.50
2022-10-09T21:26:35.730Z,14.50
2022-10-09T21:29:05.876Z,12.50
2022-10-09T21:31:34.326Z,14.90
2022-10-09T21:34:02.638Z,13.10
2022-10-09T21:36:47.161Z,15.90
2022-10-09T21:39:26.247Z,16.00
2022-10-09T21:41:53.880Z,15.50
2022-10-09T21:44:21.648Z,14.60
2022-10-09T21:46:49.281Z,14.70
2022-10-09T21:49:22.576Z,15.10
2022-10-09T21:51:51.257Z,11.90
2022-10-09T21:54:20.159Z,12.70
2022-10-09T21:56:48.449Z,14.60
2022-10-09T21:59:16.297Z,12.60
2022-10-09T22:01:44.141Z,15.40
2022-10-09T22:04:11.863Z,14.50
2022-10-09T22:06:41.259Z,17.90
2022-10-09T22:09:10.960Z,14.30
2022-10-09T22:11:38.711Z,11.70
2022-10-09T22:14:08.095Z,14.30
2022-10-09T22:16:35.844Z,11.60
2022-10-09T22:19:03.674Z,14.50
2022-10-09T22:21:31.542Z,11.60
2022-10-09T22:24:01.132Z,14.70
2022-10-09T22:26:28.929Z,13.50
2022-10-09T22:28:56.745Z,12.10
2022-10-09T22:31:26.892Z,11.70
2022-10-09T22:33:58.864Z,11.70
2022-10-09T22:36:31.446Z,12.60
2022-10-09T22:39:03.793Z,12.60
2022-10-09T22:41:33.103Z,12.30
2022-10-09T22:44:02.778Z,13.20
2022-10-09T22:46:43.421Z,11.50
2022-10-09T22:49:15.683Z,12.30
2022-10-09T22:51:45.116Z,11.70
2022-10-09T22:54:13.738Z,10.30
2022-10-09T22:56:46.589Z,13.00
2022-10-09T22:59:18.285Z,11.70
2022-10-09T23:01:53.732Z,11.00
2022-10-09T23:04:23.678Z,9.50
2022-10-09T23:06:57.813Z,9.10
2022-10-09T23:09:31.467Z,10.50
2022-10-09T23:12:00.193Z,9.50
2022-10-09T23:14:28.259Z,9.30
2022-10-09T23:16:56.028Z,9.40
2022-10-09T23:19:23.746Z,9.20
2022-10-09T23:21:51.417Z,8.70
2022-10-09T23:24:19.131Z,8.40
2022-10-09T23:26:50.919Z,10.10
2022-10-09T23:29:20.747Z,9.40
2022-10-09T23:31:52.873Z,8.40
2022-10-09T23:34:20.595Z,8.70
2022-10-09T23:36:48.288Z,8.30
2022-10-09T23:39:16.037Z,8.00
2022-10-09T23:41:43.740Z,8.40
2022-10-09T23:44:11.519Z,7.30
2022-10-09T23:46:40.055Z,8.50
2022-10-09T23:49:07.749Z,10.10
2022-10-09T23:51:35.430Z,8.60
2022-10-09T23:54:03.229Z,9.60
2022-10-09T23:56:35.156Z,7.90
2022-10-09T23:59:06.526Z,10.70
